createdAt,value
2018-12-05T00:00:00.212Z,27.10
2018-12-05T00:00:38.252Z,27.20
2018-12-05T00:01:16.193Z,27.20
2018-12-05T00:01:54.216Z,27.20
2018-12-05T00:02:32.384Z,27.20
2018-12-05T00:03:10.325Z,27.20
2018-12-05T00:03:49.708Z,27.20
2018-12-05T00:04:28.753Z,27.20
2018-12-05T00:05:06.708Z,27.20
2018-12-05T00:05:45.748Z,27.20
2018-12-05T00:06:23.671Z,27.20
2018-12-05T00:07:01.735Z,27.20
2018-12-05T00:07:39.762Z,27.20
2018-12-05T00:08:19.269Z,27.20
2018-12-05T00:08:57.584Z,27.20
2018-12-05T00:09:35.465Z,27.20
2018-12-05T00:10:13.465Z,27.20
2018-12-05T00:10:52.219Z,27.20
2018-12-05T00:11:30.474Z,27.20
2018-12-05T00:12:08.500Z,27.20
2018-12-05T00:12:46.982Z,27.20
2018-12-05T00:13:24.984Z,27.20
2018-12-05T00:14:02.946Z,27.20
2018-12-05T00:14:41.114Z,27.20
2018-12-05T00:15:19.115Z,27.20
2018-12-05T00:15:57.054Z,27.20
2018-12-05T00:16:34.980Z,27.20
2018-12-05T00:17:13.188Z,27.20
2018-12-05T00:17:51.190Z,27.20
2018-12-05T00:18:29.234Z,27.20
2018-12-05T00:19:07.096Z,27.20
2018-12-05T00:19:44.999Z,27.20
2018-12-05T00:20:22.965Z,27.20
2018-12-05T00:21:01.313Z,27.20
2018-12-05T00:21:40.009Z,27.20
2018-12-05T00:22:17.877Z,27.20
2018-12-05T00:22:55.873Z,27.20
2018-12-05T00:23:33.953Z,27.20
2018-12-05T00:24:11.859Z,27.20
2018-12-05T00:24:49.867Z,27.10
2018-12-05T00:25:28.924Z,27.10
2018-12-05T00:26:08.404Z,27.10
2018-12-05T00:26:46.409Z,27.10
2018-12-05T00:27:24.556Z,27.10
2018-12-05T00:28:02.540Z,27.10
2018-12-05T00:28:40.505Z,27.10
2018-12-05T00:29:19.501Z,27.10
2018-12-05T00:29:57.519Z,27.10
2018-12-05T00:30:36.308Z,27.10
2018-12-05T00:31:14.226Z,27.10
2018-12-05T00:31:52.230Z,27.10
2018-12-05T00:32:30.165Z,27.10
2018-12-05T00:33:08.168Z,27.10
2018-12-05T00:33:46.189Z,27.10
2018-12-05T00:34:25.496Z,27.10
2018-12-05T00:35:03.536Z,27.10
2018-12-05T00:35:42.465Z,27.10
2018-12-05T00:36:20.536Z,27.10
2018-12-05T00:36:58.416Z,27.10
2018-12-05T00:37:36.282Z,27.10
2018-12-05T00:38:14.267Z,27.10
2018-12-05T00:38:53.148Z,27.10
2018-12-05T00:39:31.085Z,27.10
2018-12-05T00:40:09.021Z,27.10
2018-12-05T00:40:46.891Z,27.10
2018-12-05T00:41:25.044Z,27.10
2018-12-05T00:42:02.986Z,27.10
2018-12-05T00:42:46.440Z,27.10
2018-12-05T00:43:26.140Z,27.10
2018-12-05T00:44:04.156Z,27.10
2018-12-05T00:44:42.131Z,27.10
2018-12-05T00:45:20.129Z,27.10
2018-12-05T00:45:58.032Z,27.10
2018-12-05T00:46:36.078Z,27.10
2018-12-05T00:47:14.974Z,27.10
2018-12-05T00:47:53.963Z,27.10
2018-12-05T00:48:31.939Z,27.10
2018-12-05T00:49:09.831Z,27.10
2018-12-05T00:49:49.743Z,27.10
2018-12-05T00:50:27.801Z,27.10
2018-12-05T00:51:05.879Z,27.10
2018-12-05T00:51:44.838Z,27.10
2018-12-05T00:52:22.862Z,27.10
2018-12-05T00:53:00.932Z,27.10
2018-12-05T00:53:38.924Z,27.10
2018-12-05T00:54:16.875Z,27.10
2018-12-05T00:54:54.826Z,27.10
2018-12-05T00:55:34.798Z,27.10
2018-12-05T00:56:12.836Z,27.10
2018-12-05T00:56:50.927Z,27.10
2018-12-05T00:57:28.749Z,27.10
2018-12-05T00:58:06.697Z,27.10
2018-12-05T00:58:44.759Z,27.20
2018-12-05T00:59:23.916Z,27.20
2018-12-05T01:00:02.258Z,27.20
2018-12-05T01:00:40.989Z,27.20
2018-12-05T01:01:19.056Z,27.10
2018-12-05T01:01:57.975Z,27.10
2018-12-05T01:02:35.951Z,27.10
2018-12-05T01:03:14.041Z,27.10
2018-12-05T01:03:52.015Z,27.10
2018-12-05T01:04:30.391Z,27.10
2018-12-05T01:05:13.682Z,27.20
2018-12-05T01:05:53.379Z,27.20
2018-12-05T01:06:31.430Z,27.10
2018-12-05T01:07:09.375Z,27.20
2018-12-05T01:07:47.187Z,27.20
2018-12-05T01:08:25.153Z,27.20
2018-12-05T01:09:06.415Z,27.20
2018-12-05T01:09:44.368Z,27.20
2018-12-05T01:10:22.400Z,27.20
2018-12-05T01:11:00.337Z,27.20
2018-12-05T01:11:38.326Z,27.20
2018-12-05T01:12:17.393Z,27.20
2018-12-05T01:12:55.484Z,27.20
2018-12-05T01:13:33.712Z,27.20
2018-12-05T01:14:12.704Z,27.20
2018-12-05T01:14:50.567Z,27.20
2018-12-05T01:15:28.403Z,27.20
2018-12-05T01:16:06.386Z,27.20
2018-12-05T01:16:44.341Z,27.20
2018-12-05T01:17:22.473Z,27.20
2018-12-05T01:18:00.881Z,27.20
2018-12-05T01:18:38.772Z,27.20
2018-12-05T01:19:16.694Z,27.30
2018-12-05T01:19:54.865Z,27.20
2018-12-05T01:20:33.049Z,27.30
2018-12-05T01:21:10.930Z,27.30
2018-12-05T01:21:50.354Z,27.30
2018-12-05T01:22:29.391Z,27.30
2018-12-05T01:23:07.398Z,27.30
2018-12-05T01:23:45.315Z,27.30
2018-12-05T01:24:23.392Z,27.30
2018-12-05T01:25:01.343Z,27.30
2018-12-05T01:25:39.245Z,27.30
2018-12-05T01:26:17.236Z,27.30
2018-12-05T01:26:55.287Z,27.30
2018-12-05T01:27:33.282Z,27.40
2018-12-05T01:28:11.242Z,27.40
2018-12-05T01:28:49.241Z,27.40
2018-12-05T01:29:27.154Z,27.40
2018-12-05T01:30:05.027Z,27.40
2018-12-05T01:30:43.336Z,27.40
2018-12-05T01:31:22.066Z,27.30
2018-12-05T01:32:01.869Z,27.30
2018-12-05T01:32:41.369Z,27.30
2018-12-05T01:33:19.450Z,27.30
2018-12-05T01:33:57.964Z,27.30
2018-12-05T01:34:36.168Z,27.30
2018-12-05T01:35:14.891Z,27.30
2018-12-05T01:35:52.863Z,27.30
2018-12-05T01:36:30.737Z,27.30
2018-12-05T01:37:08.608Z,27.30
2018-12-05T01:37:47.393Z,27.30
2018-12-05T01:38:25.340Z,27.30
2018-12-05T01:39:06.872Z,27.30
2018-12-05T01:39:45.058Z,27.30
2018-12-05T01:40:24.086Z,27.30
2018-12-05T01:41:02.991Z,27.30
2018-12-05T01:41:41.932Z,27.30
2018-12-05T01:42:19.777Z,27.30
2018-12-05T01:42:58.709Z,27.30
2018-12-05T01:43:42.247Z,27.30
2018-12-05T01:44:20.236Z,27.30
2018-12-05T01:45:01.237Z,27.30
2018-12-05T01:45:39.565Z,27.40
2018-12-05T01:46:18.447Z,27.30
2018-12-05T01:46:56.363Z,27.40
2018-12-05T01:47:34.317Z,27.40
2018-12-05T01:48:13.460Z,27.40
2018-12-05T01:48:51.416Z,27.40
2018-12-05T01:49:29.437Z,27.40
2018-12-05T01:50:07.779Z,27.40
2018-12-05T01:50:45.659Z,27.50
2018-12-05T01:51:23.855Z,27.50
2018-12-05T01:52:01.819Z,27.50
2018-12-05T01:52:40.625Z,27.50
2018-12-05T01:53:18.549Z,27.50
2018-12-05T01:53:56.608Z,27.50
2018-12-05T01:54:34.615Z,27.50
2018-12-05T01:55:12.505Z,27.50
2018-12-05T01:55:50.491Z,27.50
2018-12-05T01:56:28.333Z,27.50
2018-12-05T01:57:08.052Z,27.50
2018-12-05T01:57:46.103Z,27.50
2018-12-05T01:58:24.132Z,27.50
2018-12-05T01:59:02.026Z,27.50
2018-12-05T01:59:39.961Z,27.60
2018-12-05T02:00:17.893Z,27.60
2018-12-05T02:00:55.943Z,27.60
2018-12-05T02:01:34.041Z,27.60
2018-12-05T02:02:11.908Z,27.60
2018-12-05T02:02:49.921Z,27.60
2018-12-05T02:03:28.702Z,27.60
2018-12-05T02:04:07.635Z,27.60
2018-12-05T02:04:45.474Z,27.60
2018-12-05T02:05:23.421Z,27.60
2018-12-05T02:06:01.419Z,27.60
2018-12-05T02:06:39.421Z,27.60
2018-12-05T02:07:17.296Z,27.60
2018-12-05T02:07:55.318Z,27.60
2018-12-05T02:08:33.356Z,27.60
2018-12-05T02:09:12.075Z,27.70
2018-12-05T02:09:50.939Z,27.70
2018-12-05T02:10:28.915Z,27.70
2018-12-05T02:11:06.895Z,27.70
2018-12-05T02:11:44.787Z,27.60
2018-12-05T02:12:22.714Z,27.60
2018-12-05T02:13:00.693Z,27.70
2018-12-05T02:13:38.708Z,27.70
2018-12-05T02:14:17.433Z,27.70
2018-12-05T02:14:55.441Z,27.70
2018-12-05T02:15:33.866Z,27.70
2018-12-05T02:16:11.856Z,27.70
2018-12-05T02:16:49.824Z,27.70
2018-12-05T02:17:27.937Z,27.70
2018-12-05T02:18:05.919Z,27.70
2018-12-05T02:18:44.968Z,27.70
2018-12-05T02:19:22.893Z,27.70
2018-12-05T02:20:00.778Z,27.70
2018-12-05T02:20:38.668Z,27.70
2018-12-05T02:21:16.670Z,27.70
2018-12-05T02:21:57.915Z,27.80
2018-12-05T02:22:36.054Z,27.80
2018-12-05T02:23:14.265Z,27.80
2018-12-05T02:23:52.259Z,27.80
2018-12-05T02:24:30.221Z,27.80
2018-12-05T02:25:08.570Z,27.80
2018-12-05T02:25:46.626Z,27.80
2018-12-05T02:26:25.509Z,27.80
2018-12-05T02:27:03.450Z,27.80
2018-12-05T02:27:41.425Z,27.90
2018-12-05T02:28:19.346Z,27.90
2018-12-05T02:28:57.339Z,27.90
2018-12-05T02:30:04.933Z,27.90
2018-12-05T02:30:42.989Z,27.90
2018-12-05T02:31:21.156Z,27.90
2018-12-05T02:31:59.075Z,27.90
2018-12-05T02:32:37.009Z,27.90
2018-12-05T02:33:15.097Z,27.90
2018-12-05T02:33:53.043Z,27.90
2018-12-05T02:34:32.028Z,27.90
2018-12-05T02:35:10.122Z,27.90
2018-12-05T02:35:48.152Z,28.00
2018-12-05T02:36:26.050Z,28.00
2018-12-05T02:37:05.770Z,28.00
2018-12-05T02:37:43.733Z,28.00
2018-12-05T02:38:22.621Z,28.00
2018-12-05T02:39:00.769Z,28.00
2018-12-05T02:39:40.670Z,28.00
2018-12-05T02:40:19.862Z,28.00
2018-12-05T02:40:58.332Z,28.00
2018-12-05T02:41:36.255Z,28.00
2018-12-05T02:42:16.789Z,28.00
2018-12-05T02:42:54.781Z,28.10
2018-12-05T02:43:32.755Z,28.10
2018-12-05T02:44:10.645Z,28.10
2018-12-05T02:44:49.809Z,28.10
2018-12-05T02:45:27.764Z,28.00
2018-12-05T02:46:05.792Z,28.00
2018-12-05T02:46:43.698Z,28.10
2018-12-05T02:47:21.935Z,28.10
2018-12-05T02:48:00.059Z,28.10
2018-12-05T02:48:39.817Z,28.10
2018-12-05T02:49:18.120Z,28.10
2018-12-05T02:49:56.055Z,28.10
2018-12-05T02:50:33.942Z,28.10
2018-12-05T02:51:11.896Z,28.10
2018-12-05T02:51:49.833Z,28.10
2018-12-05T02:52:28.107Z,28.10
2018-12-05T02:53:06.150Z,28.10
2018-12-05T02:53:44.825Z,28.10
2018-12-05T02:54:22.900Z,28.10
2018-12-05T02:55:00.893Z,28.10
2018-12-05T02:55:38.863Z,28.20
2018-12-05T02:56:16.871Z,28.10
2018-12-05T02:56:54.956Z,28.20
2018-12-05T02:57:32.940Z,28.10
2018-12-05T02:58:10.733Z,28.20
2018-12-05T02:58:48.700Z,28.20
2018-12-05T02:59:26.548Z,28.10
2018-12-05T03:00:04.494Z,28.10
2018-12-05T03:00:42.473Z,28.20
2018-12-05T03:01:20.351Z,28.10
2018-12-05T03:02:01.190Z,28.20
2018-12-05T03:02:39.202Z,28.20
2018-12-05T03:03:17.090Z,28.20
2018-12-05T03:03:56.242Z,28.20
2018-12-05T03:04:34.213Z,28.30
2018-12-05T03:05:12.154Z,28.20
2018-12-05T03:05:51.696Z,28.30
2018-12-05T03:06:30.295Z,28.30
2018-12-05T03:07:08.276Z,28.30
2018-12-05T03:07:47.092Z,28.30
2018-12-05T03:08:25.030Z,28.30
2018-12-05T03:09:03.046Z,28.30
2018-12-05T03:09:41.009Z,28.30
2018-12-05T03:10:18.858Z,28.30
2018-12-05T03:10:57.611Z,28.30
2018-12-05T03:11:35.600Z,28.30
2018-12-05T03:12:14.423Z,28.30
2018-12-05T03:12:52.448Z,28.30
2018-12-05T03:13:30.476Z,28.30
2018-12-05T03:14:08.420Z,28.30
2018-12-05T03:14:47.387Z,28.30
2018-12-05T03:15:25.271Z,28.30
2018-12-05T03:16:03.231Z,28.30
2018-12-05T03:16:41.918Z,28.40
2018-12-05T03:17:19.879Z,28.40
2018-12-05T03:17:58.921Z,28.40
2018-12-05T03:18:36.881Z,28.40
2018-12-05T03:19:14.811Z,28.40
2018-12-05T03:19:52.755Z,28.40
2018-12-05T03:20:30.697Z,28.40
2018-12-05T03:21:10.685Z,28.50
2018-12-05T03:21:48.721Z,28.50
2018-12-05T03:22:26.652Z,28.50
2018-12-05T03:23:04.572Z,28.50
2018-12-05T03:23:42.941Z,28.50
2018-12-05T03:24:20.934Z,28.50
2018-12-05T03:24:59.002Z,28.50
2018-12-05T03:25:36.912Z,28.50
2018-12-05T03:26:14.980Z,28.50
2018-12-05T03:26:53.077Z,28.50
2018-12-05T03:27:31.138Z,28.50
2018-12-05T03:28:10.092Z,28.50
2018-12-05T03:28:48.076Z,28.50
2018-12-05T03:29:26.091Z,28.50
2018-12-05T03:30:04.245Z,28.50
2018-12-05T03:30:42.239Z,28.50
2018-12-05T03:31:20.255Z,28.50
2018-12-05T03:31:59.033Z,28.50
2018-12-05T03:32:37.041Z,28.50
2018-12-05T03:33:14.982Z,28.50
2018-12-05T03:33:53.584Z,28.50
2018-12-05T03:34:31.653Z,28.50
2018-12-05T03:35:09.585Z,28.50
2018-12-05T03:35:47.607Z,28.50
2018-12-05T03:36:25.547Z,28.50
2018-12-05T03:37:03.499Z,28.50
2018-12-05T03:37:42.434Z,28.50
2018-12-05T03:38:21.418Z,28.50
2018-12-05T03:38:59.484Z,28.50
2018-12-05T03:39:37.356Z,28.50
2018-12-05T03:40:15.381Z,28.50
2018-12-05T03:40:53.451Z,28.50
2018-12-05T03:41:31.531Z,28.60
2018-12-05T03:42:09.673Z,28.60
2018-12-05T03:42:47.684Z,28.60
2018-12-05T03:43:25.642Z,28.60
2018-12-05T03:44:04.632Z,28.60
2018-12-05T03:44:42.584Z,28.60
2018-12-05T03:45:20.909Z,28.60
2018-12-05T03:45:58.956Z,28.60
2018-12-05T03:46:36.972Z,28.70
2018-12-05T03:47:16.075Z,28.60
2018-12-05T03:47:54.616Z,28.60
2018-12-05T03:48:32.575Z,28.70
2018-12-05T03:49:11.025Z,28.70
2018-12-05T03:49:54.223Z,28.70
2018-12-05T03:50:32.096Z,28.70
2018-12-05T03:51:10.969Z,28.80
2018-12-05T03:51:48.804Z,28.70
2018-12-05T03:52:26.879Z,28.80
2018-12-05T03:53:04.946Z,28.70
2018-12-05T03:53:44.220Z,28.70
2018-12-05T03:54:22.248Z,28.70
2018-12-05T03:55:00.349Z,28.70
2018-12-05T03:55:38.320Z,28.80
2018-12-05T03:56:16.177Z,28.80
2018-12-05T03:56:54.261Z,28.80
2018-12-05T03:57:32.343Z,28.80
2018-12-05T03:58:10.394Z,28.80
2018-12-05T03:58:48.318Z,28.80
2018-12-05T03:59:26.307Z,28.80
2018-12-05T04:00:04.358Z,28.80
2018-12-05T04:00:42.250Z,28.80
2018-12-05T04:01:20.163Z,28.80
2018-12-05T04:01:59.147Z,28.80
2018-12-05T04:02:37.520Z,28.80
2018-12-05T04:03:15.510Z,28.90
2018-12-05T04:03:53.452Z,28.90
2018-12-05T04:04:31.352Z,28.90
2018-12-05T04:05:09.276Z,28.90
2018-12-05T04:05:48.088Z,28.90
2018-12-05T04:06:26.083Z,28.90
2018-12-05T04:07:05.146Z,28.90
2018-12-05T04:07:43.054Z,28.90
2018-12-05T04:08:21.109Z,28.90
2018-12-05T04:08:59.970Z,28.90
2018-12-05T04:09:37.968Z,28.90
2018-12-05T04:10:15.863Z,29.00
2018-12-05T04:10:53.916Z,29.00
2018-12-05T04:11:33.835Z,29.00
2018-12-05T04:12:11.843Z,29.00
2018-12-05T04:12:49.837Z,29.00
2018-12-05T04:13:27.823Z,29.00
2018-12-05T04:14:05.704Z,29.00
2018-12-05T04:14:43.516Z,29.00
2018-12-05T04:15:21.536Z,29.00
2018-12-05T04:16:00.708Z,29.00
2018-12-05T04:16:38.702Z,29.00
2018-12-05T04:17:18.421Z,29.00
2018-12-05T04:17:56.308Z,29.00
2018-12-05T04:18:34.402Z,29.00
2018-12-05T04:19:12.481Z,29.00
2018-12-05T04:19:50.516Z,29.00
2018-12-05T04:20:28.454Z,29.00
2018-12-05T04:21:06.381Z,29.00
2018-12-05T04:21:44.339Z,29.00
2018-12-05T04:22:22.276Z,29.00
2018-12-05T04:23:01.196Z,29.00
2018-12-05T04:23:39.161Z,29.00
2018-12-05T04:24:18.808Z,29.00
2018-12-05T04:24:56.918Z,29.00
2018-12-05T04:25:36.545Z,29.00
2018-12-05T04:26:14.486Z,29.00
2018-12-05T04:26:52.469Z,29.00
2018-12-05T04:27:30.416Z,29.00
2018-12-05T04:28:08.392Z,29.00
2018-12-05T04:28:47.387Z,29.00
2018-12-05T04:29:25.483Z,29.00
2018-12-05T04:30:03.378Z,29.00
2018-12-05T04:30:41.477Z,29.00
2018-12-05T04:31:19.438Z,29.00
2018-12-05T04:31:57.547Z,29.00
2018-12-05T04:32:35.454Z,29.00
2018-12-05T04:34:25.573Z,29.00
2018-12-05T04:35:03.493Z,29.00
2018-12-05T04:35:41.522Z,29.00
2018-12-05T04:36:19.809Z,29.00
2018-12-05T04:37:00.227Z,29.00
2018-12-05T04:37:38.318Z,29.00
2018-12-05T04:38:17.893Z,29.00
2018-12-05T04:39:39.344Z,29.00
2018-12-05T04:40:17.320Z,29.00
2018-12-05T04:40:55.354Z,29.00
2018-12-05T04:41:33.382Z,29.10
2018-12-05T04:42:13.125Z,29.00
2018-12-05T04:42:56.372Z,29.00
2018-12-05T04:43:34.342Z,29.10
2018-12-05T04:44:12.219Z,29.10
2018-12-05T04:44:50.115Z,29.10
2018-12-05T04:45:28.993Z,29.10
2018-12-05T04:46:06.974Z,29.10
2018-12-05T04:46:44.996Z,29.10
2018-12-05T04:47:23.162Z,29.10
2018-12-05T04:48:01.035Z,29.10
2018-12-05T04:48:38.943Z,29.10
2018-12-05T04:49:17.043Z,29.10
2018-12-05T04:49:56.095Z,29.10
2018-12-05T04:50:34.542Z,29.10
2018-12-05T04:51:13.669Z,29.10
2018-12-05T04:51:53.622Z,29.10
2018-12-05T04:52:31.765Z,29.10
2018-12-05T04:53:09.762Z,29.10
2018-12-05T04:53:47.879Z,29.10
2018-12-05T04:54:25.923Z,29.10
2018-12-05T04:55:03.970Z,29.10
2018-12-05T04:55:43.604Z,29.10
2018-12-05T04:56:23.140Z,29.10
2018-12-05T04:57:01.120Z,29.10
2018-12-05T04:57:39.204Z,29.20
2018-12-05T04:58:17.228Z,29.20
2018-12-05T04:58:55.172Z,29.20
2018-12-05T04:59:33.064Z,29.20
2018-12-05T05:00:11.645Z,29.20
2018-12-05T05:00:49.749Z,29.20
2018-12-05T05:01:27.799Z,29.20
2018-12-05T05:02:05.721Z,29.20
2018-12-05T05:02:43.667Z,29.20
2018-12-05T05:03:21.613Z,29.20
2018-12-05T05:03:59.660Z,29.20
2018-12-05T05:04:37.797Z,29.20
2018-12-05T05:05:15.847Z,29.20
2018-12-05T05:05:53.994Z,29.20
2018-12-05T05:06:31.971Z,29.20
2018-12-05T05:07:09.961Z,29.30
2018-12-05T05:07:47.883Z,29.20
2018-12-05T05:08:25.793Z,29.20
2018-12-05T05:09:05.595Z,29.30
2018-12-05T05:09:44.577Z,29.20
2018-12-05T05:10:22.541Z,29.20
2018-12-05T05:11:02.702Z,29.20
2018-12-05T05:11:40.737Z,29.20
2018-12-05T05:12:18.623Z,29.20
2018-12-05T05:12:58.903Z,29.20
2018-12-05T05:13:38.449Z,29.30
2018-12-05T05:14:16.525Z,29.20
2018-12-05T05:14:54.504Z,29.30
2018-12-05T05:15:32.439Z,29.30
2018-12-05T05:16:10.443Z,29.30
2018-12-05T05:16:48.405Z,29.30
2018-12-05T05:17:27.666Z,29.30
2018-12-05T05:18:05.831Z,29.30
2018-12-05T05:18:43.781Z,29.30
2018-12-05T05:19:21.767Z,29.30
2018-12-05T05:20:00.513Z,29.30
2018-12-05T05:20:38.482Z,29.30
2018-12-05T05:21:16.449Z,29.30
2018-12-05T05:21:54.704Z,29.30
2018-12-05T05:22:32.803Z,29.30
2018-12-05T05:23:10.844Z,29.30
2018-12-05T05:23:48.909Z,29.30
2018-12-05T05:24:26.862Z,29.30
2018-12-05T05:25:04.825Z,29.30
2018-12-05T05:25:43.596Z,29.30
2018-12-05T05:26:22.449Z,29.40
2018-12-05T05:27:01.395Z,29.40
2018-12-05T05:27:45.697Z,29.40
2018-12-05T05:28:19.484Z,29.40
2018-12-05T05:28:58.488Z,29.40
2018-12-05T05:29:36.426Z,29.40
2018-12-05T05:30:14.506Z,29.40
2018-12-05T05:30:54.248Z,29.40
2018-12-05T05:31:33.053Z,29.40
2018-12-05T05:32:12.599Z,29.40
2018-12-05T05:32:54.189Z,29.40
2018-12-05T05:33:32.168Z,29.40
2018-12-05T05:34:10.106Z,29.40
2018-12-05T05:34:48.608Z,29.40
2018-12-05T05:35:27.103Z,29.40
2018-12-05T05:36:05.096Z,29.40
2018-12-05T05:36:43.069Z,29.40
2018-12-05T05:37:20.944Z,29.40
2018-12-05T05:37:59.346Z,29.40
2018-12-05T05:38:37.259Z,29.40
2018-12-05T05:39:16.861Z,29.40
2018-12-05T05:39:54.767Z,29.40
2018-12-05T05:40:32.841Z,29.40
2018-12-05T05:41:10.809Z,29.40
2018-12-05T05:41:48.900Z,29.40
2018-12-05T05:42:26.896Z,29.40
2018-12-05T05:43:06.078Z,29.40
2018-12-05T05:43:45.420Z,29.40
2018-12-05T05:44:23.312Z,29.50
2018-12-05T05:45:01.373Z,29.50
2018-12-05T05:45:39.265Z,29.50
2018-12-05T05:46:18.021Z,29.50
2018-12-05T05:46:55.878Z,29.50
2018-12-05T05:47:33.825Z,29.50
2018-12-05T05:48:12.086Z,29.50
2018-12-05T05:48:49.992Z,29.60
2018-12-05T05:49:27.792Z,29.60
2018-12-05T05:50:06.792Z,29.60
2018-12-05T05:50:44.908Z,29.60
2018-12-05T05:51:22.828Z,29.60
2018-12-05T05:52:01.715Z,29.60
2018-12-05T05:52:43.781Z,29.60
2018-12-05T05:53:21.705Z,29.60
2018-12-05T05:53:59.757Z,29.60
2018-12-05T05:54:38.691Z,29.70
2018-12-05T05:55:16.647Z,29.70
2018-12-05T05:55:54.516Z,29.70
2018-12-05T05:56:32.403Z,29.70
2018-12-05T05:57:12.016Z,29.70
2018-12-05T05:57:50.086Z,29.70
2018-12-05T05:58:28.092Z,29.70
2018-12-05T05:59:06.136Z,29.80
2018-12-05T05:59:44.189Z,29.80
2018-12-05T06:00:22.189Z,29.80
2018-12-05T06:01:00.522Z,29.80
2018-12-05T06:01:38.586Z,29.80
2018-12-05T06:02:16.538Z,29.80
2018-12-05T06:02:54.474Z,29.80
2018-12-05T06:03:33.636Z,29.80
2018-12-05T06:04:11.622Z,29.80
2018-12-05T06:04:49.644Z,29.80
2018-12-05T06:05:28.999Z,29.80
2018-12-05T06:06:07.031Z,29.80
2018-12-05T06:06:45.721Z,29.80
2018-12-05T06:07:23.745Z,29.80
2018-12-05T06:08:02.586Z,29.80
2018-12-05T06:08:40.639Z,29.80
2018-12-05T06:09:18.649Z,29.80
2018-12-05T06:09:57.712Z,29.80
2018-12-05T06:10:35.566Z,29.80
2018-12-05T06:11:13.462Z,29.80
2018-12-05T06:11:52.717Z,29.80
2018-12-05T06:12:30.709Z,29.80
2018-12-05T06:13:08.624Z,29.80
2018-12-05T06:13:49.436Z,29.80
2018-12-05T06:14:27.419Z,29.80
2018-12-05T06:15:05.241Z,29.80
2018-12-05T06:15:43.226Z,29.80
2018-12-05T06:16:21.203Z,29.80
2018-12-05T06:16:59.110Z,29.80
2018-12-05T06:17:37.112Z,29.80
2018-12-05T06:18:15.209Z,29.80
2018-12-05T06:18:53.036Z,29.80
2018-12-05T06:19:31.000Z,29.80
2018-12-05T06:20:10.312Z,29.80
2018-12-05T06:20:48.268Z,29.80
2018-12-05T06:21:26.250Z,29.80
2018-12-05T06:22:04.215Z,29.80
2018-12-05T06:22:43.490Z,29.80
2018-12-05T06:23:21.458Z,29.80
2018-12-05T06:23:59.423Z,29.80
2018-12-05T06:24:37.379Z,29.80
2018-12-05T06:25:15.547Z,29.80
2018-12-05T06:25:54.560Z,29.80
2018-12-05T06:26:34.609Z,29.80
2018-12-05T06:27:14.003Z,29.80
2018-12-05T06:27:52.025Z,29.80
2018-12-05T06:28:30.446Z,29.80
2018-12-05T06:29:08.410Z,29.80
2018-12-05T06:29:47.207Z,29.80
2018-12-05T06:30:25.139Z,29.80
2018-12-05T06:31:03.216Z,29.80
2018-12-05T06:31:42.696Z,29.80
2018-12-05T06:32:21.827Z,29.80
2018-12-05T06:32:59.831Z,29.80
2018-12-05T06:33:37.800Z,29.80
2018-12-05T06:34:17.061Z,29.90
2018-12-05T06:34:57.296Z,29.90
2018-12-05T06:35:35.690Z,29.90
2018-12-05T06:36:13.634Z,29.90
2018-12-05T06:36:51.540Z,29.90
2018-12-05T06:37:29.519Z,29.90
2018-12-05T06:38:07.578Z,29.90
2018-12-05T06:38:45.425Z,29.90
2018-12-05T06:39:23.457Z,29.90
2018-12-05T06:40:01.692Z,29.90
2018-12-05T06:40:40.456Z,29.90
2018-12-05T06:41:18.444Z,29.90
2018-12-05T06:41:56.481Z,29.90
2018-12-05T06:42:36.163Z,29.90
2018-12-05T06:43:14.104Z,29.90
2018-12-05T06:43:51.976Z,29.90
2018-12-05T06:44:33.978Z,29.90
2018-12-05T06:45:12.949Z,29.90
2018-12-05T06:45:50.870Z,29.90
2018-12-05T06:46:28.824Z,29.90
2018-12-05T06:47:06.856Z,29.90
2018-12-05T06:47:44.779Z,29.90
2018-12-05T06:48:22.847Z,29.90
2018-12-05T06:49:02.414Z,29.90
2018-12-05T06:49:40.471Z,29.90
2018-12-05T06:50:18.606Z,29.90
2018-12-05T06:50:56.673Z,29.90
2018-12-05T06:51:35.188Z,29.90
2018-12-05T06:52:14.132Z,29.90
2018-12-05T06:52:53.946Z,29.90
2018-12-05T06:53:31.923Z,29.90
2018-12-05T06:54:10.112Z,29.90
2018-12-05T06:54:48.158Z,29.90
2018-12-05T06:55:26.209Z,29.90
2018-12-05T06:56:04.333Z,30.00
2018-12-05T06:56:42.526Z,29.90
2018-12-05T06:57:21.598Z,29.90
2018-12-05T06:57:59.615Z,29.90
2018-12-05T06:58:37.594Z,29.90
2018-12-05T06:59:16.348Z,29.90
2018-12-05T06:59:54.293Z,29.90
2018-12-05T07:00:32.315Z,29.90
2018-12-05T07:01:10.365Z,29.90
2018-12-05T07:01:50.517Z,29.90
2018-12-05T07:02:29.403Z,29.90
2018-12-05T07:03:08.197Z,29.90
2018-12-05T07:03:46.088Z,29.90
2018-12-05T07:04:24.025Z,29.90
2018-12-05T07:05:03.341Z,29.90
2018-12-05T07:05:41.418Z,29.90
2018-12-05T07:06:20.626Z,29.90
2018-12-05T07:06:58.645Z,30.00
2018-12-05T07:07:36.559Z,29.90
2018-12-05T07:08:15.483Z,29.90
2018-12-05T07:08:53.449Z,29.90
2018-12-05T07:09:33.012Z,29.90
2018-12-05T07:10:11.878Z,29.90
2018-12-05T07:10:50.096Z,29.90
2018-12-05T07:11:28.036Z,29.90
2018-12-05T07:12:05.989Z,29.90
2018-12-05T07:12:44.041Z,29.90
2018-12-05T07:13:22.163Z,30.00
2018-12-05T07:14:01.016Z,30.00
2018-12-05T07:14:40.478Z,30.00
2018-12-05T07:15:18.348Z,29.90
2018-12-05T07:15:56.335Z,29.90
2018-12-05T07:16:34.319Z,30.00
2018-12-05T07:17:12.246Z,30.00
2018-12-05T07:17:50.753Z,30.00
2018-12-05T07:18:29.129Z,30.00
2018-12-05T07:19:08.156Z,30.00
2018-12-05T07:19:46.145Z,30.00
2018-12-05T07:20:24.120Z,30.00
2018-12-05T07:21:02.112Z,30.00
2018-12-05T07:21:40.163Z,30.00
2018-12-05T07:22:18.104Z,30.00
2018-12-05T07:22:56.121Z,30.00
2018-12-05T07:23:34.599Z,30.00
2018-12-05T07:24:12.665Z,30.00
2018-12-05T07:24:51.857Z,30.00
2018-12-05T07:25:29.727Z,30.00
2018-12-05T07:26:07.729Z,30.00
2018-12-05T07:26:45.785Z,30.00
2018-12-05T07:27:23.739Z,30.00
2018-12-05T07:28:02.907Z,30.00
2018-12-05T07:28:40.901Z,30.00
2018-12-05T07:29:18.876Z,30.00
2018-12-05T07:29:56.919Z,30.00
2018-12-05T07:30:34.797Z,30.00
2018-12-05T07:31:12.702Z,30.00
2018-12-05T07:31:55.578Z,30.00
2018-12-05T07:32:34.619Z,30.00
2018-12-05T07:33:12.611Z,30.00
2018-12-05T07:33:51.393Z,30.00
2018-12-05T07:34:30.447Z,30.00
2018-12-05T07:35:11.421Z,30.00
2018-12-05T07:35:49.327Z,30.00
2018-12-05T07:36:28.055Z,30.00
2018-12-05T07:37:06.120Z,30.00
2018-12-05T07:37:44.171Z,30.00
2018-12-05T07:38:27.886Z,30.00
2018-12-05T07:39:07.439Z,30.00
2018-12-05T07:39:46.184Z,30.00
2018-12-05T07:40:24.206Z,30.00
2018-12-05T07:41:03.977Z,30.00
2018-12-05T07:41:42.777Z,30.00
2018-12-05T07:42:20.665Z,30.00
2018-12-05T07:42:59.474Z,30.00
2018-12-05T07:43:37.496Z,30.00
2018-12-05T07:44:15.422Z,30.00
2018-12-05T07:44:53.673Z,30.00
2018-12-05T07:45:32.490Z,30.00
2018-12-05T07:46:10.444Z,30.00
2018-12-05T07:46:48.521Z,30.00
2018-12-05T07:47:26.817Z,30.00
2018-12-05T07:48:04.732Z,30.00
2018-12-05T07:48:42.731Z,30.00
2018-12-05T07:49:21.371Z,30.10
2018-12-05T07:49:59.346Z,30.10
2018-12-05T07:50:37.321Z,30.00
2018-12-05T07:51:15.324Z,30.10
2018-12-05T07:51:53.399Z,30.00
2018-12-05T07:52:31.497Z,30.10
2018-12-05T07:53:09.551Z,30.00
2018-12-05T07:53:47.849Z,30.10
2018-12-05T07:54:26.684Z,30.10
2018-12-05T07:55:04.733Z,30.10
2018-12-05T07:55:43.604Z,30.10
2018-12-05T07:56:22.720Z,30.10
2018-12-05T07:57:00.717Z,30.10
2018-12-05T07:57:39.686Z,30.10
2018-12-05T07:58:19.598Z,30.10
2018-12-05T07:58:57.613Z,30.10
2018-12-05T07:59:35.483Z,30.10
2018-12-05T08:00:13.435Z,30.10
2018-12-05T08:00:51.600Z,30.10
2018-12-05T08:01:29.618Z,30.10
2018-12-05T08:02:07.626Z,30.10
2018-12-05T08:02:46.716Z,30.10
2018-12-05T08:03:24.694Z,30.10
2018-12-05T08:04:02.635Z,30.10
2018-12-05T08:04:41.135Z,30.10
2018-12-05T08:05:19.104Z,30.10
2018-12-05T08:05:56.982Z,30.10
2018-12-05T08:06:34.973Z,30.10
2018-12-05T08:07:13.068Z,30.10
2018-12-05T08:07:52.036Z,30.10
2018-12-05T08:08:29.954Z,30.10
2018-12-05T08:09:15.513Z,30.10
2018-12-05T08:09:53.485Z,30.10
2018-12-05T08:10:31.421Z,30.10
2018-12-05T08:11:10.636Z,30.10
2018-12-05T08:11:48.599Z,30.10
2018-12-05T08:12:26.729Z,30.10
2018-12-05T08:13:05.556Z,30.10
2018-12-05T08:13:43.579Z,30.10
2018-12-05T08:14:22.941Z,30.10
2018-12-05T08:15:00.847Z,30.10
2018-12-05T08:15:39.848Z,30.10
2018-12-05T08:16:17.806Z,30.20